GIA777 WAHI-WIII
Flight info
| Callsign | GIA777 |
|---|---|
| Flight time | 0h 51m |
| Altitude | 32000 |
| Route | CA W17S IMU |
| Aircraft | B738/M-SDE2E3FGHIRWXY/LB1 |
Departure
| Time | 2026-04-25 12:56 |
|---|---|
| Airport | Yogyakarta International Airport (WAHI) |
Arrival
| Time | 2026-04-25 13:47 |
|---|---|
| Airport | Soekarno-Hatta International Airport (WIII) |
| Time | Latitude | Longitude | Altitude | Speed | Heading |
|---|---|---|---|---|---|
| 2026-04-25 12:25 | -7.89977 | 110.05455 | 36 ft | 0 kts | 20° |
| 2026-04-25 12:47 | -7.89981 | 110.05453 | 34 ft | 2 kts | 20° |
| 2026-04-25 12:47 | -7.89999 | 110.05447 | 30 ft | 3 kts | 15° |
| 2026-04-25 12:48 | -7.90019 | 110.05443 | 31 ft | 3 kts | 7° |
| 2026-04-25 12:48 | -7.90039 | 110.05441 | 31 ft | 3 kts | 353° |
| 2026-04-25 12:48 | -7.90057 | 110.05446 | 31 ft | 3 kts | 318° |
| 2026-04-25 12:48 | -7.90064 | 110.05454 | 31 ft | 1 kts | 291° |
| 2026-04-25 12:51 | -7.90063 | 110.05452 | 30 ft | 1 kts | 291° |
| 2026-04-25 12:51 | -7.90052 | 110.05424 | 32 ft | 7 kts | 291° |
| 2026-04-25 12:51 | -7.90026 | 110.05354 | 33 ft | 13 kts | 291° |
| 2026-04-25 12:51 | -7.89994 | 110.05271 | 31 ft | 13 kts | 291° |
| 2026-04-25 12:52 | -7.89966 | 110.05187 | 33 ft | 13 kts | 275° |
| 2026-04-25 12:52 | -7.90025 | 110.05132 | 33 ft | 12 kts | 202° |
| 2026-04-25 12:52 | -7.90102 | 110.05093 | 32 ft | 13 kts | 239° |
| 2026-04-25 12:52 | -7.90088 | 110.05006 | 32 ft | 13 kts | 290° |
| 2026-04-25 12:53 | -7.90059 | 110.04924 | 33 ft | 12 kts | 290° |
| 2026-04-25 12:53 | -7.90029 | 110.04844 | 33 ft | 12 kts | 290° |
| 2026-04-25 12:53 | -7.89997 | 110.04755 | 34 ft | 15 kts | 290° |
| 2026-04-25 12:53 | -7.89958 | 110.04648 | 36 ft | 17 kts | 290° |
| 2026-04-25 12:54 | -7.89916 | 110.04534 | 36 ft | 17 kts | 290° |
| 2026-04-25 12:54 | -7.89874 | 110.04422 | 34 ft | 17 kts | 290° |
| 2026-04-25 12:54 | -7.89850 | 110.04345 | 33 ft | 11 kts | 281° |
| 2026-04-25 12:54 | -7.89877 | 110.04294 | 36 ft | 5 kts | 191° |
| 2026-04-25 12:55 | -7.89904 | 110.04307 | 36 ft | 9 kts | 154° |
| 2026-04-25 12:55 | -7.89959 | 110.04333 | 37 ft | 17 kts | 154° |
| 2026-04-25 12:55 | -7.90071 | 110.04465 | 38 ft | 33 kts | 112° |
| 2026-04-25 12:55 | -7.90238 | 110.04917 | 33 ft | 103 kts | 110° |
| 2026-04-25 12:56 | -7.90559 | 110.05776 | 50 ft | 155 kts | 110° |
| 2026-04-25 12:56 | -7.90959 | 110.06850 | 575 ft | 160 kts | 112° |
| 2026-04-25 12:56 | -7.91461 | 110.07819 | 1271 ft | 160 kts | 137° |
| 2026-04-25 12:56 | -7.92505 | 110.08170 | 1880 ft | 167 kts | 175° |
| 2026-04-25 12:57 | -7.93753 | 110.08269 | 2172 ft | 198 kts | 172° |
| 2026-04-25 12:57 | -7.95219 | 110.08419 | 2396 ft | 224 kts | 173° |
| 2026-04-25 12:57 | -7.96844 | 110.08589 | 2702 ft | 242 kts | 172° |
| 2026-04-25 12:57 | -7.98557 | 110.08776 | 3308 ft | 250 kts | 172° |
| 2026-04-25 12:58 | -8.00295 | 110.08960 | 4063 ft | 253 kts | 176° |
| 2026-04-25 12:58 | -8.02004 | 110.08538 | 4767 ft | 260 kts | 213° |
| 2026-04-25 12:58 | -8.03193 | 110.07154 | 5336 ft | 273 kts | 246° |
| 2026-04-25 12:58 | -8.03439 | 110.05241 | 5819 ft | 283 kts | 282° |
| 2026-04-25 12:59 | -8.02583 | 110.03477 | 6466 ft | 284 kts | 315° |
| 2026-04-25 12:59 | -8.00913 | 110.02460 | 7149 ft | 283 kts | 348° |
| 2026-04-25 12:59 | -7.98971 | 110.02474 | 7886 ft | 282 kts | 12° |
| 2026-04-25 12:59 | -7.97002 | 110.02556 | 8573 ft | 291 kts | 347° |
| 2026-04-25 13:00 | -7.95199 | 110.01618 | 9346 ft | 296 kts | 323° |
| 2026-04-25 13:00 | -7.91947 | 109.99018 | 10717 ft | 308 kts | 323° |
| 2026-04-25 13:00 | -7.90233 | 109.97687 | 11407 ft | 313 kts | 324° |
| 2026-04-25 13:01 | -7.88395 | 109.96555 | 12151 ft | 315 kts | 338° |
| 2026-04-25 13:01 | -7.86343 | 109.95753 | 12939 ft | 318 kts | 341° |
| 2026-04-25 13:01 | -7.84256 | 109.94981 | 13712 ft | 322 kts | 341° |
| 2026-04-25 13:01 | -7.82141 | 109.94193 | 14418 ft | 326 kts | 341° |
| 2026-04-25 13:02 | -7.80009 | 109.93385 | 15149 ft | 329 kts | 341° |
| 2026-04-25 13:02 | -7.77946 | 109.92593 | 15854 ft | 333 kts | 340° |
| 2026-04-25 13:02 | -7.75890 | 109.91796 | 16547 ft | 336 kts | 340° |
| 2026-04-25 13:02 | -7.73713 | 109.90948 | 17262 ft | 340 kts | 340° |
| 2026-04-25 13:03 | -7.71498 | 109.90084 | 17990 ft | 344 kts | 340° |
| 2026-04-25 13:03 | -7.69244 | 109.89203 | 18653 ft | 348 kts | 340° |
| 2026-04-25 13:03 | -7.67027 | 109.88338 | 19292 ft | 350 kts | 340° |
| 2026-04-25 13:03 | -7.64784 | 109.87436 | 19941 ft | 353 kts | 336° |
| 2026-04-25 13:04 | -7.62588 | 109.86304 | 20568 ft | 357 kts | 332° |
| 2026-04-25 13:04 | -7.60430 | 109.85044 | 21197 ft | 360 kts | 330° |
| 2026-04-25 13:04 | -7.58256 | 109.83756 | 21827 ft | 364 kts | 330° |
| 2026-04-25 13:04 | -7.56054 | 109.82481 | 22463 ft | 367 kts | 331° |
| 2026-04-25 13:05 | -7.53815 | 109.81207 | 23074 ft | 370 kts | 331° |
| 2026-04-25 13:05 | -7.51560 | 109.79932 | 23645 ft | 374 kts | 331° |
| 2026-04-25 13:05 | -7.49279 | 109.78646 | 24114 ft | 377 kts | 331° |
| 2026-04-25 13:05 | -7.46986 | 109.77334 | 24587 ft | 381 kts | 328° |
| 2026-04-25 13:06 | -7.44860 | 109.75718 | 25062 ft | 385 kts | 318° |
| 2026-04-25 13:06 | -7.43058 | 109.73757 | 25550 ft | 389 kts | 310° |
| 2026-04-25 13:06 | -7.41346 | 109.71631 | 26023 ft | 392 kts | 309° |
| 2026-04-25 13:06 | -7.39641 | 109.69470 | 26483 ft | 395 kts | 309° |
| 2026-04-25 13:07 | -7.37925 | 109.67290 | 26937 ft | 399 kts | 309° |
| 2026-04-25 13:07 | -7.36191 | 109.65095 | 27380 ft | 402 kts | 309° |
| 2026-04-25 13:07 | -7.34436 | 109.62888 | 27838 ft | 405 kts | 309° |
| 2026-04-25 13:07 | -7.32661 | 109.60663 | 28283 ft | 409 kts | 310° |
| 2026-04-25 13:08 | -7.30870 | 109.58428 | 28721 ft | 412 kts | 310° |
| 2026-04-25 13:08 | -7.29061 | 109.56175 | 29154 ft | 415 kts | 310° |
| 2026-04-25 13:08 | -7.27235 | 109.53902 | 29582 ft | 418 kts | 310° |
| 2026-04-25 13:08 | -7.25399 | 109.51619 | 29996 ft | 421 kts | 310° |
| 2026-04-25 13:09 | -7.23550 | 109.49321 | 30350 ft | 424 kts | 310° |
| 2026-04-25 13:09 | -7.21691 | 109.47010 | 30728 ft | 425 kts | 310° |
| 2026-04-25 13:09 | -7.19825 | 109.44690 | 31113 ft | 427 kts | 310° |
| 2026-04-25 13:09 | -7.17948 | 109.42358 | 31482 ft | 429 kts | 309° |
| 2026-04-25 13:10 | -7.16067 | 109.40020 | 31829 ft | 431 kts | 309° |
| 2026-04-25 13:10 | -7.14163 | 109.37654 | 31926 ft | 439 kts | 309° |
| 2026-04-25 13:10 | -7.10250 | 109.32794 | 31949 ft | 454 kts | 309° |
| 2026-04-25 13:11 | -7.06212 | 109.27779 | 31945 ft | 467 kts | 309° |
| 2026-04-25 13:11 | -7.02067 | 109.22634 | 31946 ft | 478 kts | 309° |
| 2026-04-25 13:12 | -6.97835 | 109.17381 | 31945 ft | 487 kts | 309° |
| 2026-04-25 13:12 | -6.94997 | 109.13860 | 31936 ft | 490 kts | 309° |
| 2026-04-25 13:13 | -6.89276 | 109.06764 | 31925 ft | 490 kts | 309° |
| 2026-04-25 13:13 | -6.84981 | 109.01438 | 31928 ft | 490 kts | 309° |
| 2026-04-25 13:14 | -6.80739 | 108.96179 | 31933 ft | 489 kts | 309° |
| 2026-04-25 13:14 | -6.76449 | 108.90865 | 31934 ft | 489 kts | 309° |
| 2026-04-25 13:15 | -6.72163 | 108.85555 | 31925 ft | 488 kts | 309° |
| 2026-04-25 13:15 | -6.67880 | 108.80251 | 31929 ft | 488 kts | 309° |
| 2026-04-25 13:16 | -6.63604 | 108.74957 | 31932 ft | 488 kts | 309° |
| 2026-04-25 13:16 | -6.59330 | 108.69668 | 31929 ft | 487 kts | 309° |
| 2026-04-25 13:17 | -6.55050 | 108.64372 | 31926 ft | 487 kts | 309° |
| 2026-04-25 13:17 | -6.50777 | 108.59088 | 31926 ft | 487 kts | 309° |
| 2026-04-25 13:18 | -6.46500 | 108.53798 | 31923 ft | 487 kts | 309° |
| 2026-04-25 13:18 | -6.42253 | 108.48549 | 31924 ft | 487 kts | 309° |
| 2026-04-25 13:19 | -6.38669 | 108.44119 | 31926 ft | 487 kts | 309° |
| 2026-04-25 13:19 | -6.35113 | 108.39725 | 31919 ft | 487 kts | 309° |
| 2026-04-25 13:20 | -6.30133 | 108.33587 | 31924 ft | 487 kts | 310° |
| 2026-04-25 13:20 | -6.24699 | 108.27833 | 31926 ft | 487 kts | 315° |
| 2026-04-25 13:21 | -6.20681 | 108.23794 | 31920 ft | 488 kts | 315° |
| 2026-04-25 13:21 | -6.15936 | 108.18910 | 31921 ft | 488 kts | 314° |
| 2026-04-25 13:22 | -6.11216 | 108.14010 | 31922 ft | 488 kts | 315° |
| 2026-04-25 13:23 | -6.04127 | 108.06733 | 31924 ft | 488 kts | 315° |
| 2026-04-25 13:23 | -5.99387 | 108.01858 | 31923 ft | 488 kts | 313° |
| 2026-04-25 13:23 | -5.97397 | 107.99170 | 31378 ft | 495 kts | 296° |
| 2026-04-25 13:24 | -5.96240 | 107.95931 | 30642 ft | 492 kts | 280° |
| 2026-04-25 13:24 | -5.95982 | 107.92519 | 29786 ft | 491 kts | 269° |
| 2026-04-25 13:24 | -5.96035 | 107.89077 | 28702 ft | 493 kts | 268° |
| 2026-04-25 13:24 | -5.96102 | 107.85631 | 27676 ft | 494 kts | 268° |
| 2026-04-25 13:25 | -5.96151 | 107.82184 | 26626 ft | 495 kts | 269° |
| 2026-04-25 13:25 | -5.96174 | 107.78720 | 25739 ft | 493 kts | 269° |
| 2026-04-25 13:25 | -5.96176 | 107.75351 | 25557 ft | 475 kts | 269° |
| 2026-04-25 13:25 | -5.96171 | 107.72091 | 25352 ft | 458 kts | 269° |
| 2026-04-25 13:26 | -5.96167 | 107.68934 | 25160 ft | 444 kts | 269° |
| 2026-04-25 13:26 | -5.96165 | 107.65883 | 24977 ft | 431 kts | 269° |
| 2026-04-25 13:26 | -5.96165 | 107.62942 | 24563 ft | 425 kts | 269° |
| 2026-04-25 13:26 | -5.96166 | 107.59938 | 24051 ft | 423 kts | 269° |
| 2026-04-25 13:27 | -5.96167 | 107.57027 | 23537 ft | 422 kts | 269° |
| 2026-04-25 13:27 | -5.96168 | 107.54080 | 22936 ft | 420 kts | 269° |
| 2026-04-25 13:27 | -5.96169 | 107.51154 | 22399 ft | 417 kts | 269° |
| 2026-04-25 13:27 | -5.96169 | 107.48258 | 21878 ft | 413 kts | 270° |
| 2026-04-25 13:28 | -5.96169 | 107.45384 | 21366 ft | 410 kts | 270° |
| 2026-04-25 13:28 | -5.96169 | 107.43463 | 21030 ft | 407 kts | 270° |
| 2026-04-25 13:28 | -5.96169 | 107.39718 | 20371 ft | 398 kts | 270° |
| 2026-04-25 13:28 | -5.96168 | 107.36964 | 19707 ft | 391 kts | 270° |
| 2026-04-25 13:29 | -5.96168 | 107.34241 | 18935 ft | 389 kts | 270° |
| 2026-04-25 13:29 | -5.96167 | 107.31583 | 18757 ft | 373 kts | 270° |
| 2026-04-25 13:29 | -5.96164 | 107.28984 | 18296 ft | 371 kts | 270° |
| 2026-04-25 13:30 | -5.96156 | 107.23818 | 17384 ft | 368 kts | 270° |
| 2026-04-25 13:30 | -5.96151 | 107.21259 | 16952 ft | 366 kts | 270° |
| 2026-04-25 13:30 | -5.96150 | 107.20412 | 16806 ft | 365 kts | 270° |
| 2026-04-25 13:31 | -5.96146 | 107.18279 | 16444 ft | 363 kts | 270° |
| 2026-04-25 13:31 | -5.96144 | 107.16872 | 16207 ft | 362 kts | 270° |
| 2026-04-25 13:31 | -5.96141 | 107.15384 | 15955 ft | 361 kts | 270° |
| 2026-04-25 13:31 | -5.96137 | 107.12866 | 15528 ft | 360 kts | 270° |
| 2026-04-25 13:32 | -5.96132 | 107.10357 | 15099 ft | 359 kts | 270° |
| 2026-04-25 13:32 | -5.96128 | 107.07856 | 14676 ft | 357 kts | 270° |
| 2026-04-25 13:32 | -5.96123 | 107.05360 | 14247 ft | 356 kts | 270° |
| 2026-04-25 13:32 | -5.96118 | 107.02875 | 13833 ft | 356 kts | 270° |
| 2026-04-25 13:33 | -5.96112 | 107.00396 | 13413 ft | 354 kts | 271° |
| 2026-04-25 13:33 | -5.96107 | 106.97988 | 13008 ft | 352 kts | 271° |
| 2026-04-25 13:33 | -5.96100 | 106.95540 | 12609 ft | 349 kts | 271° |
| 2026-04-25 13:33 | -5.96098 | 106.94469 | 12435 ft | 348 kts | 271° |
| 2026-04-25 13:34 | -5.96089 | 106.91232 | 11933 ft | 344 kts | 271° |
| 2026-04-25 13:34 | -5.96083 | 106.88844 | 11584 ft | 341 kts | 271° |
| 2026-04-25 13:34 | -5.96077 | 106.86468 | 11219 ft | 338 kts | 271° |
| 2026-04-25 13:34 | -5.96071 | 106.84145 | 10859 ft | 336 kts | 271° |
| 2026-04-25 13:35 | -5.96064 | 106.81805 | 10491 ft | 334 kts | 271° |
| 2026-04-25 13:35 | -5.96073 | 106.79488 | 10114 ft | 327 kts | 268° |
| 2026-04-25 13:35 | -5.96591 | 106.77316 | 9905 ft | 312 kts | 247° |
| 2026-04-25 13:35 | -5.97010 | 106.76338 | 9866 ft | 302 kts | 247° |
| 2026-04-25 13:36 | -5.97834 | 106.74380 | 9188 ft | 305 kts | 247° |
| 2026-04-25 13:36 | -5.98369 | 106.73084 | 8887 ft | 303 kts | 248° |
| 2026-04-25 13:36 | -5.99164 | 106.71144 | 8481 ft | 297 kts | 248° |
| 2026-04-25 13:36 | -5.99944 | 106.69229 | 8123 ft | 297 kts | 248° |
| 2026-04-25 13:37 | -6.00725 | 106.67305 | 7754 ft | 298 kts | 248° |
| 2026-04-25 13:37 | -6.01509 | 106.65369 | 7383 ft | 299 kts | 248° |
| 2026-04-25 13:37 | -6.02283 | 106.63457 | 7002 ft | 293 kts | 248° |
| 2026-04-25 13:37 | -6.03043 | 106.61580 | 6638 ft | 287 kts | 247° |
| 2026-04-25 13:38 | -6.03790 | 106.59736 | 6285 ft | 282 kts | 247° |
| 2026-04-25 13:38 | -6.04521 | 106.57927 | 5908 ft | 277 kts | 247° |
| 2026-04-25 13:38 | -6.05239 | 106.56151 | 5573 ft | 272 kts | 247° |
| 2026-04-25 13:38 | -6.05942 | 106.54410 | 5239 ft | 266 kts | 247° |
| 2026-04-25 13:39 | -6.06631 | 106.52702 | 4922 ft | 261 kts | 247° |
| 2026-04-25 13:39 | -6.07309 | 106.51023 | 4625 ft | 257 kts | 247° |
| 2026-04-25 13:39 | -6.07978 | 106.49367 | 4300 ft | 255 kts | 247° |
| 2026-04-25 13:39 | -6.08644 | 106.47716 | 4003 ft | 256 kts | 247° |
| 2026-04-25 13:40 | -6.09088 | 106.46618 | 3796 ft | 255 kts | 247° |
| 2026-04-25 13:40 | -6.09969 | 106.44439 | 3385 ft | 248 kts | 245° |
| 2026-04-25 13:40 | -6.10924 | 106.43070 | 3084 ft | 234 kts | 214° |
| 2026-04-25 13:40 | -6.12348 | 106.42457 | 2841 ft | 216 kts | 186° |
| 2026-04-25 13:41 | -6.13795 | 106.42407 | 2593 ft | 203 kts | 169° |
| 2026-04-25 13:41 | -6.15151 | 106.42624 | 2376 ft | 193 kts | 166° |
| 2026-04-25 13:41 | -6.16426 | 106.42898 | 2141 ft | 182 kts | 155° |
| 2026-04-25 13:41 | -6.17338 | 106.43620 | 2027 ft | 165 kts | 121° |
| 2026-04-25 13:42 | -6.17680 | 106.44685 | 2005 ft | 157 kts | 92° |
| 2026-04-25 13:42 | -6.17778 | 106.45774 | 2001 ft | 160 kts | 95° |
| 2026-04-25 13:42 | -6.17906 | 106.46894 | 2003 ft | 162 kts | 95° |
| 2026-04-25 13:42 | -6.18029 | 106.48024 | 2003 ft | 163 kts | 94° |
| 2026-04-25 13:43 | -6.17898 | 106.49141 | 1992 ft | 162 kts | 67° |
| 2026-04-25 13:43 | -6.17489 | 106.50196 | 1988 ft | 162 kts | 71° |
| 2026-04-25 13:43 | -6.17110 | 106.51247 | 1982 ft | 158 kts | 69° |
| 2026-04-25 13:43 | -6.16712 | 106.52279 | 1999 ft | 158 kts | 69° |
| 2026-04-25 13:44 | -6.16315 | 106.53283 | 2014 ft | 149 kts | 68° |
| 2026-04-25 13:44 | -6.15942 | 106.54221 | 1946 ft | 142 kts | 69° |
| 2026-04-25 13:44 | -6.15579 | 106.55136 | 1791 ft | 141 kts | 68° |
| 2026-04-25 13:44 | -6.15221 | 106.56035 | 1623 ft | 140 kts | 68° |
| 2026-04-25 13:45 | -6.14858 | 106.56945 | 1442 ft | 141 kts | 68° |
| 2026-04-25 13:45 | -6.14494 | 106.57859 | 1272 ft | 140 kts | 68° |
| 2026-04-25 13:45 | -6.14132 | 106.58768 | 1088 ft | 140 kts | 67° |
| 2026-04-25 13:45 | -6.13768 | 106.59683 | 909 ft | 140 kts | 67° |
| 2026-04-25 13:46 | -6.13403 | 106.60591 | 708 ft | 140 kts | 67° |
| 2026-04-25 13:46 | -6.13051 | 106.61482 | 509 ft | 136 kts | 68° |
| 2026-04-25 13:46 | -6.12706 | 106.62375 | 368 ft | 136 kts | 68° |
| 2026-04-25 13:46 | -6.12356 | 106.63245 | 222 ft | 134 kts | 67° |
| 2026-04-25 13:47 | -6.12007 | 106.64113 | 62 ft | 134 kts | 68° |
| 2026-04-25 13:47 | -6.11684 | 106.64921 | 40 ft | 108 kts | 67° |
| 2026-04-25 13:47 | -6.11463 | 106.65483 | 36 ft | 65 kts | 69° |
| 2026-04-25 13:47 | -6.11413 | 106.65631 | 39 ft | 11 kts | 81° |
| 2026-04-25 13:48 | -6.11411 | 106.65711 | 38 ft | 12 kts | 92° |
| 2026-04-25 13:48 | -6.11416 | 106.65793 | 37 ft | 12 kts | 97° |
| 2026-04-25 13:48 | -6.11448 | 106.65863 | 37 ft | 11 kts | 137° |
| 2026-04-25 13:48 | -6.11465 | 106.65875 | 37 ft | 0 kts | 148° |
| 2026-04-25 13:49 | -6.11466 | 106.65875 | 37 ft | 0 kts | 149° |
| 2026-04-25 13:49 | -6.11476 | 106.65880 | 36 ft | 3 kts | 152° |
| 2026-04-25 13:49 | -6.11495 | 106.65890 | 37 ft | 4 kts | 154° |
| 2026-04-25 13:49 | -6.11538 | 106.65911 | 37 ft | 10 kts | 153° |
| 2026-04-25 13:50 | -6.11607 | 106.65947 | 36 ft | 12 kts | 154° |
| 2026-04-25 13:50 | -6.11656 | 106.65967 | 37 ft | 10 kts | 159° |
| 2026-04-25 13:50 | -6.11674 | 106.65974 | 35 ft | 0 kts | 159° |
| 2026-04-25 13:50 | -6.11685 | 106.65978 | 37 ft | 7 kts | 159° |
| 2026-04-25 13:51 | -6.11724 | 106.65992 | 37 ft | 4 kts | 167° |
| 2026-04-25 13:51 | -6.11742 | 106.65984 | 34 ft | 3 kts | 225° |
| 2026-04-25 13:51 | -6.11753 | 106.65967 | 37 ft | 3 kts | 243° |
| 2026-04-25 13:51 | -6.11761 | 106.65951 | 37 ft | 1 kts | 246° |
| 2026-04-25 13:52 | -6.11764 | 106.65942 | 37 ft | 1 kts | 246° |
| 2026-04-25 13:52 | -6.11767 | 106.65937 | 37 ft | 0 kts | 246° |